Time;durP1;ratioP1;P1;durP2;ratioP2;P2;SDS_P1;SDS_P2;PMS_P1;PMS_P2;Temp;Humidity;BMP_temperature;BMP_pressure;BME280_temperature;BME280_humidity;BME280_pressure;Samples;Min_cycle;Max_cycle;Signal;HPM_P1;HPM_P2
2022/03/03 00:04:06;;;;;;;15.93;8.70;;;2.10;99.90;;;;;;12536889;28;20444;-36
2022/03/03 00:10:10;;;;;;;17.00;9.20;;;2.10;99.90;;;;;;12533003;28;20124;-39
2022/03/03 00:16:12;;;;;;;21.35;10.02;;;2.20;99.90;;;;;;12534510;28;20048;-36
2022/03/03 00:22:15;;;;;;;18.08;9.20;;;2.10;99.90;;;;;;12513280;28;20040;-39
2022/03/03 00:28:17;;;;;;;17.88;9.30;;;2.20;99.90;;;;;;12529074;28;20077;-41
2022/03/03 00:34:19;;;;;;;16.77;9.95;;;2.10;99.90;;;;;;12534080;28;20121;-37
2022/03/03 00:40:21;;;;;;;18.65;9.90;;;1.80;99.90;;;;;;12534621;28;20106;-40
2022/03/03 00:46:26;;;;;;;19.38;10.63;;;1.70;99.90;;;;;;12535725;28;20048;-36
2022/03/03 00:52:28;;;;;;;21.55;11.63;;;1.50;99.90;;;;;;12534806;28;20421;-36
2022/03/03 00:58:30;;;;;;;24.40;11.90;;;1.30;99.90;;;;;;12532051;28;20109;-36
2022/03/03 01:04:32;;;;;;;19.88;11.23;;;1.50;99.90;;;;;;12531317;28;20093;-39
2022/03/03 01:10:34;;;;;;;21.67;11.38;;;1.50;99.90;;;;;;12531425;28;20078;-35
2022/03/03 01:16:36;;;;;;;19.83;10.77;;;1.50;99.90;;;;;;12535112;28;20055;-35
2022/03/03 01:22:38;;;;;;;22.00;11.32;;;1.40;99.90;;;;;;12535058;28;20574;-39
2022/03/03 01:28:40;;;;;;;21.08;11.05;;;0.90;99.90;;;;;;12530340;28;20575;-38
2022/03/03 01:34:42;;;;;;;22.40;13.38;;;0.70;99.90;;;;;;12532998;28;21025;-39
2022/03/03 01:40:44;;;;;;;21.67;11.23;;;0.70;99.90;;;;;;12530051;28;20049;-40
2022/03/03 01:46:57;;;;;;;21.77;11.90;;;0.50;99.90;;;;;;12532075;28;20492;-36
2022/03/03 01:52:59;;;;;;;19.95;10.95;;;0.70;99.90;;;;;;12532136;28;20501;-39
2022/03/03 01:59:02;;;;;;;19.42;10.82;;;0.60;99.90;;;;;;12533012;28;20148;-39
2022/03/03 02:05:05;;;;;;;21.73;12.30;;;0.60;99.90;;;;;;12529976;28;20116;-40
2022/03/03 02:11:07;;;;;;;18.73;10.88;;;0.50;99.90;;;;;;12531857;28;20566;-40
2022/03/03 02:17:09;;;;;;;23.02;11.85;;;0.70;99.90;;;;;;12531294;28;20393;-39
2022/03/03 02:23:12;;;;;;;20.55;11.68;;;0.60;99.90;;;;;;12532989;28;20088;-39
2022/03/03 02:29:14;;;;;;;20.45;11.70;;;0.40;99.90;;;;;;12526140;28;20056;-36
2022/03/03 02:35:16;;;;;;;20.23;11.15;;;0.40;99.90;;;;;;12525582;28;20056;-36
2022/03/03 02:41:20;;;;;;;20.45;11.57;;;0.40;99.90;;;;;;12517043;28;20140;-39
2022/03/03 02:47:22;;;;;;;22.25;11.38;;;0.30;99.90;;;;;;12532321;28;20069;-37
2022/03/03 02:53:24;;;;;;;20.10;11.07;;;0.30;99.90;;;;;;12540490;28;20084;-40
2022/03/03 02:59:26;;;;;;;22.83;12.50;;;0.30;99.90;;;;;;12539175;28;20092;-38
2022/03/03 03:05:28;;;;;;;20.15;11.05;;;0.20;99.90;;;;;;12538172;28;20052;-42
2022/03/03 03:11:29;;;;;;;23.08;11.70;;;0.30;99.90;;;;;;12536028;28;21075;-35
2022/03/03 03:17:32;;;;;;;21.92;12.27;;;0.20;99.90;;;;;;12537491;28;20056;-36
2022/03/03 03:23:33;;;;;;;20.20;11.43;;;0.20;99.90;;;;;;12538187;28;20546;-39
2022/03/03 03:29:35;;;;;;;22.85;11.82;;;0.10;99.90;;;;;;12533349;28;20084;-36
2022/03/03 03:35:37;;;;;;;19.38;11.35;;;0.10;99.90;;;;;;12536562;28;20143;-35
2022/03/03 03:41:39;;;;;;;20.27;11.10;;;0.00;99.90;;;;;;12534173;28;20109;-39
2022/03/03 03:47:42;;;;;;;19.40;11.23;;;-0.10;99.90;;;;;;12537978;28;20067;-39
2022/03/03 03:53:44;;;;;;;21.75;11.45;;;-0.10;99.90;;;;;;12532344;28;20052;-41
2022/03/03 03:59:46;;;;;;;19.55;11.60;;;-0.10;99.90;;;;;;12534371;28;20052;-39
2022/03/03 04:05:48;;;;;;;20.90;11.93;;;-0.20;99.90;;;;;;12535420;28;20539;-39
2022/03/03 04:11:50;;;;;;;20.40;11.40;;;-0.30;99.90;;;;;;12535542;28;20256;-39
2022/03/03 04:17:52;;;;;;;20.55;11.60;;;-0.20;99.90;;;;;;12540212;28;20063;-35
2022/03/03 04:23:54;;;;;;;20.30;11.35;;;-0.20;99.90;;;;;;12537257;28;20064;-39
2022/03/03 04:29:56;;;;;;;21.38;12.32;;;-0.30;99.90;;;;;;12536284;28;20044;-35
2022/03/03 04:35:58;;;;;;;22.10;11.77;;;-0.30;99.90;;;;;;12524717;28;20085;-39
2022/03/03 04:42:00;;;;;;;20.08;11.98;;;-0.30;99.90;;;;;;12535281;28;20048;-36
2022/03/03 04:48:02;;;;;;;24.60;13.05;;;-0.40;99.90;;;;;;12537263;28;20044;-35
2022/03/03 04:54:06;;;;;;;21.02;11.50;;;-0.40;99.90;;;;;;12534816;28;20052;-39
2022/03/03 05:00:09;;;;;;;20.53;11.73;;;-0.30;99.90;;;;;;12532528;28;20045;-39
2022/03/03 05:06:11;;;;;;;22.88;12.10;;;-0.30;99.90;;;;;;12537945;28;20135;-36
2022/03/03 05:12:13;;;;;;;21.67;12.05;;;-0.30;99.90;;;;;;12535720;28;20105;-36
2022/03/03 05:18:16;;;;;;;22.88;13.30;;;-0.30;99.90;;;;;;12542348;28;20988;-36
2022/03/03 05:24:19;;;;;;;25.97;14.13;;;-0.40;99.90;;;;;;12541105;28;20159;-39
2022/03/03 05:30:21;;;;;;;22.45;11.73;;;-0.40;99.90;;;;;;12541948;28;20097;-39
2022/03/03 05:36:25;;;;;;;21.50;12.40;;;-0.40;99.90;;;;;;12543456;28;20425;-38
2022/03/03 05:42:29;;;;;;;25.15;12.10;;;-0.40;99.90;;;;;;12521581;28;20052;-39
2022/03/03 05:48:32;;;;;;;21.02;11.63;;;-0.30;99.90;;;;;;12546936;28;20833;-38
2022/03/03 05:54:36;;;;;;;20.00;12.13;;;-0.30;99.90;;;;;;12542167;28;20049;-35
2022/03/03 06:00:39;;;;;;;25.42;12.13;;;-0.40;99.90;;;;;;12535164;28;20465;-37
2022/03/03 06:06:57;;;;;;;22.95;12.00;;;-0.50;99.90;;;;;;12541494;28;20825;-36
2022/03/03 06:13:23;;;;;;;21.75;11.85;;;-0.50;99.90;;;;;;12536706;28;20071;-37
2022/03/03 06:19:29;;;;;;;22.42;12.23;;;-0.40;99.90;;;;;;12533411;28;20049;-37
2022/03/03 06:25:32;;;;;;;20.38;11.57;;;-0.30;99.90;;;;;;12499418;28;20095;-40
2022/03/03 06:31:34;;;;;;;20.05;11.35;;;-0.30;99.90;;;;;;12499070;28;20468;-36
2022/03/03 06:37:38;;;;;;;20.53;11.70;;;-0.30;99.90;;;;;;12501639;28;20060;-36
2022/03/03 06:43:42;;;;;;;21.40;11.82;;;-0.30;99.90;;;;;;12498512;28;20597;-36
2022/03/03 06:49:47;;;;;;;20.15;10.93;;;-0.20;99.90;;;;;;12481080;28;20808;-39
2022/03/03 06:55:53;;;;;;;20.70;10.38;;;0.10;99.90;;;;;;12497929;28;20049;-40
2022/03/03 07:01:59;;;;;;;19.73;10.75;;;0.50;99.90;;;;;;12497360;28;20049;-39
2022/03/03 07:08:03;;;;;;;19.83;11.43;;;0.80;99.90;;;;;;12498234;28;21106;-39
2022/03/03 07:14:07;;;;;;;16.58;10.15;;;0.80;99.90;;;;;;12498581;28;20046;-36
2022/03/03 07:20:30;;;;;;;15.90;9.93;;;1.00;99.90;;;;;;12499155;28;20068;-36
2022/03/03 07:26:33;;;;;;;20.45;11.50;;;1.20;99.90;;;;;;12499295;28;20057;-36
2022/03/03 07:32:39;;;;;;;22.83;13.07;;;1.60;99.90;;;;;;12497129;28;20050;-35
2022/03/03 07:38:47;;;;;;;22.20;13.93;;;1.90;99.90;;;;;;12493681;28;20071;-35
2022/03/03 07:44:50;;;;;;;25.25;14.90;;;1.60;99.90;;;;;;12492365;28;20045;-39
2022/03/03 07:50:57;;;;;;;21.63;12.73;;;1.40;99.90;;;;;;12497130;28;20056;-36
2022/03/03 07:57:04;;;;;;;24.48;12.43;;;1.60;99.90;;;;;;12482313;28;20622;-39
2022/03/03 08:03:17;;;;;;;19.00;11.05;;;2.00;99.90;;;;;;12495718;28;20088;-36
2022/03/03 08:09:24;;;;;;;15.85;10.20;;;2.60;99.90;;;;;;12494616;28;20049;-39
2022/03/03 08:15:27;;;;;;;17.25;10.18;;;3.10;99.90;;;;;;12495035;28;20528;-39
2022/03/03 08:21:32;;;;;;;17.57;10.17;;;3.50;99.90;;;;;;12489673;28;20465;-36
2022/03/03 08:27:37;;;;;;;15.43;9.38;;;3.90;99.90;;;;;;12495641;28;20054;-39
2022/03/03 08:33:54;;;;;;;17.08;9.77;;;4.30;99.90;;;;;;12492539;28;20052;-40
2022/03/03 08:40:01;;;;;;;24.92;12.57;;;4.50;99.90;;;;;;12488150;28;20135;-37
2022/03/03 08:46:07;;;;;;;20.05;12.43;;;5.00;99.90;;;;;;12476962;28;20420;-36
2022/03/03 08:52:12;;;;;;;22.35;13.13;;;4.80;99.90;;;;;;12464656;28;20135;-36
2022/03/03 08:58:15;;;;;;;22.42;12.77;;;4.40;99.90;;;;;;12488275;28;20045;-37
2022/03/03 09:04:19;;;;;;;23.45;12.70;;;4.40;99.90;;;;;;12485714;28;20210;-39
2022/03/03 09:10:22;;;;;;;19.30;12.05;;;4.60;99.90;;;;;;12495651;28;20920;-39
2022/03/03 09:16:26;;;;;;;18.25;11.57;;;4.90;99.90;;;;;;12489620;28;20050;-40
2022/03/03 09:22:31;;;;;;;19.15;10.50;;;5.10;99.90;;;;;;12469658;28;20061;-36
2022/03/03 09:28:34;;;;;;;21.73;12.23;;;5.40;99.90;;;;;;12473592;28;20065;-39
2022/03/03 09:34:37;;;;;;;19.90;11.30;;;5.60;99.90;;;;;;12491965;28;20125;-36
2022/03/03 09:40:41;;;;;;;21.42;12.27;;;5.60;99.90;;;;;;12491396;28;20543;-39
2022/03/03 09:46:45;;;;;;;19.35;12.50;;;5.80;99.90;;;;;;12484865;28;20048;-37
2022/03/03 09:52:50;;;;;;;21.02;11.88;;;6.10;99.90;;;;;;12486488;28;20103;-37
2022/03/03 09:58:53;;;;;;;20.40;12.23;;;6.20;99.90;;;;;;12491917;28;20044;-37
2022/03/03 10:04:56;;;;;;;19.03;11.67;;;6.50;99.90;;;;;;12489804;28;20053;-37
2022/03/03 10:11:03;;;;;;;14.95;10.90;;;6.70;99.90;;;;;;12486415;28;20520;-36
2022/03/03 10:17:07;;;;;;;19.13;11.23;;;6.70;99.90;;;;;;12489125;28;20411;-36
2022/03/03 10:23:17;;;;;;;16.90;10.90;;;6.90;99.90;;;;;;12487500;28;20049;-40
2022/03/03 10:29:23;;;;;;;15.05;9.23;;;7.00;99.90;;;;;;12487637;28;20057;-37
2022/03/03 10:35:27;;;;;;;15.68;9.15;;;7.20;99.90;;;;;;12484503;28;20087;-39
2022/03/03 10:41:36;;;;;;;16.92;9.93;;;7.50;99.90;;;;;;12482970;28;20065;-40
2022/03/03 10:47:57;;;;;;;16.80;10.10;;;7.70;99.90;;;;;;12484236;28;20052;-40
2022/03/03 10:54:03;;;;;;;16.98;10.30;;;7.80;99.90;;;;;;12482289;28;20107;-37
2022/03/03 11:00:30;;;;;;;16.00;10.27;;;8.10;99.90;;;;;;12484599;28;20386;-36
2022/03/03 11:06:34;;;;;;;17.42;10.82;;;8.20;99.90;;;;;;12487477;28;20122;-36
2022/03/03 11:12:42;;;;;;;15.52;9.90;;;8.20;99.90;;;;;;12491545;28;20046;-40
2022/03/03 11:18:47;;;;;;;15.13;9.70;;;8.50;99.90;;;;;;12496238;28;20056;-40
2022/03/03 11:24:52;;;;;;;;;;;8.80;99.90;;;;;;12497142;28;20049;-37
2022/03/03 11:30:58;;;;;;;13.55;9.55;;;8.70;99.90;;;;;;12492518;28;20047;-41
2022/03/03 11:37:05;;;;;;;18.33;10.57;;;8.90;99.90;;;;;;12495287;28;20058;-37
2022/03/03 11:43:12;;;;;;;15.07;10.02;;;9.00;99.90;;;;;;12495402;28;20053;-40
2022/03/03 11:49:23;;;;;;;15.20;9.90;;;9.10;99.90;;;;;;12496105;28;20485;-37
2022/03/03 11:55:33;;;;;;;14.75;9.75;;;9.00;99.90;;;;;;12486499;28;20045;-41
2022/03/03 12:01:55;;;;;;;15.38;10.05;;;9.30;99.90;;;;;;12496865;28;20049;-40
2022/03/03 12:08:04;;;;;;;12.63;8.82;;;9.50;99.90;;;;;;12495309;28;20053;-40
2022/03/03 12:14:32;;;;;;;13.15;9.20;;;9.60;99.90;;;;;;12494206;28;20160;-41
2022/03/03 12:20:37;;;;;;;13.35;8.73;;;9.90;99.90;;;;;;12490182;28;20426;-41
2022/03/03 12:26:58;;;;;;;14.63;9.70;;;10.00;99.90;;;;;;12490822;28;20604;-41
2022/03/03 12:33:05;;;;;;;16.25;10.50;;;10.00;99.90;;;;;;12492875;28;20439;-41
2022/03/03 12:39:08;;;;;;;13.98;10.65;;;10.20;99.90;;;;;;12494846;28;20050;-37
2022/03/03 12:45:14;;;;;;;18.15;11.23;;;10.00;99.90;;;;;;12489450;28;20049;-37
2022/03/03 12:51:18;;;;;;;14.95;11.35;;;10.10;99.90;;;;;;12490406;28;20489;-41
2022/03/03 12:57:36;;;;;;;18.92;12.02;;;10.10;99.90;;;;;;12494593;28;20084;-41
2022/03/03 13:03:39;;;;;;;18.00;12.60;;;10.50;99.90;;;;;;12494143;28;20083;-40
2022/03/03 13:09:55;;;;;;;17.77;11.95;;;10.10;99.90;;;;;;12484150;28;20187;-41
2022/03/03 13:16:10;;;;;;;17.27;11.77;;;10.10;99.90;;;;;;12490214;28;20501;-40
2022/03/03 13:22:14;;;;;;;18.25;12.05;;;9.80;99.90;;;;;;12488457;28;20568;-38
2022/03/03 13:28:25;;;;;;;19.17;11.43;;;9.90;99.90;;;;;;12495048;28;20742;-37
2022/03/03 13:34:30;;;;;;;19.52;12.60;;;9.60;99.90;;;;;;12471252;28;20049;-40
2022/03/03 13:40:37;;;;;;;16.42;12.25;;;9.50;99.90;;;;;;12493885;28;20581;-37
2022/03/03 13:46:43;;;;;;;20.88;12.25;;;9.60;99.90;;;;;;12471882;28;20489;-40
2022/03/03 13:52:46;;;;;;;16.17;11.30;;;9.30;99.90;;;;;;12475329;28;20040;-36
2022/03/03 13:59:02;;;;;;;18.98;11.73;;;9.00;99.90;;;;;;12490176;28;20053;-40
2022/03/03 14:05:07;;;;;;;16.80;11.65;;;8.90;99.90;;;;;;12488110;28;20057;-36
2022/03/03 14:11:29;;;;;;;19.85;11.65;;;9.00;99.90;;;;;;12469654;28;20080;-40
2022/03/03 14:17:34;;;;;;;18.70;11.10;;;8.80;99.90;;;;;;12475287;28;20071;-37
2022/03/03 14:23:38;;;;;;;17.48;10.60;;;8.60;99.90;;;;;;12489111;28;20049;-37
2022/03/03 14:29:43;;;;;;;15.65;10.65;;;8.50;99.90;;;;;;12488346;28;20524;-36
2022/03/03 14:35:47;;;;;;;14.60;10.15;;;8.50;99.90;;;;;;12484868;28;20142;-36
2022/03/03 14:41:49;;;;;;;12.93;8.90;;;8.50;99.90;;;;;;12477467;28;20045;-37
2022/03/03 14:47:56;;;;;;;19.33;10.70;;;8.50;99.90;;;;;;12502049;28;20147;-37
2022/03/03 14:54:02;;;;;;;17.00;11.20;;;8.40;99.90;;;;;;12489257;28;20044;-37
2022/03/03 15:00:09;;;;;;;19.13;11.73;;;8.30;99.90;;;;;;12501177;28;20128;-36
2022/03/03 15:06:12;;;;;;;20.13;11.68;;;8.30;99.90;;;;;;12500208;28;20053;-38
2022/03/03 15:12:16;;;;;;;16.85;9.32;;;8.20;99.90;;;;;;12496527;28;20053;-38
2022/03/03 15:18:19;;;;;;;12.18;8.35;;;8.10;99.90;;;;;;12497565;28;20453;-37
2022/03/03 15:24:22;;;;;;;14.82;10.25;;;8.10;99.90;;;;;;12496748;28;20540;-41
2022/03/03 15:30:26;;;;;;;19.38;10.00;;;8.10;99.90;;;;;;12495551;28;20521;-37
2022/03/03 15:36:47;;;;;;;12.20;7.72;;;8.10;99.90;;;;;;12472703;28;20053;-39
2022/03/03 15:42:50;;;;;;;13.48;8.30;;;8.00;99.90;;;;;;12497890;28;20053;-37
2022/03/03 15:48:53;;;;;;;11.30;6.72;;;8.00;99.90;;;;;;12497820;28;20090;-41
2022/03/03 15:54:57;;;;;;;11.40;6.93;;;8.10;99.90;;;;;;12490892;28;20590;-37
2022/03/03 16:01:00;;;;;;;14.75;7.68;;;8.00;99.90;;;;;;12474609;28;20079;-36
2022/03/03 16:07:03;;;;;;;13.65;7.82;;;7.90;99.90;;;;;;12488768;28;20045;-37
2022/03/03 16:13:08;;;;;;;15.27;9.03;;;7.80;99.90;;;;;;12494689;28;20444;-36
2022/03/03 16:19:17;;;;;;;14.07;8.65;;;7.70;99.90;;;;;;12495496;28;20056;-40
2022/03/03 16:25:21;;;;;;;15.18;9.60;;;7.60;99.90;;;;;;12493158;28;20084;-40
2022/03/03 16:31:54;;;;;;;18.70;10.83;;;7.40;99.90;;;;;;12490819;28;20068;-37
2022/03/03 16:37:57;;;;;;;19.08;10.88;;;7.20;99.90;;;;;;12475237;28;20068;-38
2022/03/03 16:44:01;;;;;;;15.35;9.82;;;7.00;99.90;;;;;;12473721;28;20603;-36
2022/03/03 16:50:06;;;;;;;18.80;10.07;;;6.80;99.90;;;;;;12474553;28;20059;-36
2022/03/03 16:56:14;;;;;;;18.52;10.60;;;6.60;99.90;;;;;;12494813;28;20456;-36
2022/03/03 17:02:19;;;;;;;18.80;10.52;;;6.50;99.90;;;;;;12491222;28;20045;-37
2022/03/03 17:08:24;;;;;;;18.77;10.82;;;6.20;99.90;;;;;;12496744;28;20434;-40
2022/03/03 17:14:27;;;;;;;17.83;9.80;;;5.90;99.90;;;;;;12494192;28;20049;-39
2022/03/03 17:20:31;;;;;;;20.13;10.97;;;5.70;99.90;;;;;;12496269;28;20033;-37
2022/03/03 17:26:34;;;;;;;20.23;10.18;;;5.50;99.90;;;;;;12491051;28;20065;-37
2022/03/03 17:32:37;;;;;;;29.08;16.73;;;5.40;99.90;;;;;;12488693;28;20466;-40
2022/03/03 17:38:40;;;;;;;31.50;15.23;;;5.40;99.90;;;;;;12492361;28;20080;-40
2022/03/03 17:44:45;;;;;;;22.10;11.95;;;5.20;99.90;;;;;;12491438;28;20339;-37
2022/03/03 17:50:47;;;;;;;;;;;5.10;99.90;;;;;;12490994;28;20045;-36
2022/03/03 17:56:49;;;;;;;20.42;10.65;;;4.90;99.90;;;;;;12491178;28;19981;-36
2022/03/03 18:02:52;;;;;;;18.45;10.23;;;4.80;99.90;;;;;;12488166;28;20647;-40
2022/03/03 18:08:55;;;;;;;18.55;9.95;;;4.80;99.90;;;;;;12491681;28;20075;-40
2022/03/03 18:14:58;;;;;;;12.07;6.10;;;4.70;99.90;;;;;;12488595;28;20076;-40
2022/03/03 18:21:01;;;;;;;11.40;5.53;;;4.80;99.90;;;;;;12496707;28;20045;-36
2022/03/03 18:27:06;;;;;;;8.43;4.50;;;4.80;99.90;;;;;;12500094;28;20056;-39
2022/03/03 18:33:14;;;;;;;11.18;4.78;;;4.80;99.90;;;;;;12496424;28;20049;-39
2022/03/03 18:39:17;;;;;;;9.02;4.88;;;4.80;99.90;;;;;;12478701;28;20569;-36
2022/03/03 18:45:20;;;;;;;11.15;5.93;;;4.60;99.90;;;;;;12496334;28;20064;-36
2022/03/03 18:51:24;;;;;;;12.57;6.55;;;4.40;99.90;;;;;;12500590;28;20057;-37
2022/03/03 18:57:26;;;;;;;13.43;6.90;;;4.10;99.90;;;;;;12480904;28;20083;-36
2022/03/03 19:03:29;;;;;;;12.82;6.20;;;3.90;99.90;;;;;;12482709;28;20049;-37
2022/03/03 19:09:32;;;;;;;12.88;6.38;;;3.70;99.90;;;;;;12499756;28;20068;-36
2022/03/03 19:15:35;;;;;;;12.25;6.20;;;3.60;99.90;;;;;;12489901;28;20069;-37
2022/03/03 19:21:37;;;;;;;13.18;6.75;;;3.60;99.90;;;;;;12477809;28;20052;-36
2022/03/03 19:27:40;;;;;;;11.77;6.68;;;3.50;99.90;;;;;;12479595;28;20133;-40
2022/03/03 19:40:06;;;;;;;16.17;9.25;;;3.10;99.90;;;;;;12494175;28;20045;-36
2022/03/03 19:46:09;;;;;;;19.45;10.13;;;3.00;99.90;;;;;;12475099;28;20049;-40
2022/03/03 19:52:12;;;;;;;16.05;9.00;;;2.80;99.90;;;;;;12496984;28;20838;-36
2022/03/03 19:58:15;;;;;;;19.27;10.45;;;2.70;99.90;;;;;;12494395;28;20049;-36
2022/03/03 20:04:17;;;;;;;17.70;9.70;;;2.50;99.90;;;;;;12495989;28;20152;-39
2022/03/03 20:16:44;;;;;;;19.65;9.90;;;2.20;99.90;;;;;;12497231;28;20493;-41
2022/03/03 20:22:47;;;;;;;21.73;10.52;;;2.10;99.90;;;;;;12492038;28;20485;-38
2022/03/03 20:28:50;;;;;;;19.90;10.38;;;2.00;99.90;;;;;;12491833;28;20069;-39
2022/03/03 20:34:53;;;;;;;19.25;10.27;;;1.90;99.90;;;;;;12493532;28;20091;-40
2022/03/03 20:40:56;;;;;;;20.67;10.07;;;1.80;99.90;;;;;;12473170;28;20068;-39
2022/03/03 20:46:58;;;;;;;25.13;10.60;;;1.70;99.90;;;;;;12492821;28;20109;-36
2022/03/03 20:53:02;;;;;;;23.48;10.73;;;1.60;99.90;;;;;;12489937;28;20049;-36
2022/03/03 20:59:04;;;;;;;22.42;10.68;;;1.40;99.90;;;;;;12493928;28;20089;-38
2022/03/03 21:05:08;;;;;;;24.48;11.30;;;1.40;99.90;;;;;;12495476;28;20449;-41
2022/03/03 21:11:11;;;;;;;22.97;10.40;;;1.50;99.90;;;;;;12492076;28;20049;-39
2022/03/03 21:17:16;;;;;;;23.95;11.35;;;1.50;99.90;;;;;;12492652;28;20711;-36
2022/03/03 21:23:18;;;;;;;;;;;1.50;99.90;;;;;;12493472;28;20148;-40
2022/03/03 21:29:22;;;;;;;24.40;11.40;;;1.40;99.90;;;;;;12491846;28;20193;-36
2022/03/03 21:35:24;;;;;;;21.02;10.40;;;1.30;99.90;;;;;;12489113;28;20059;-36
2022/03/03 21:41:27;;;;;;;22.58;11.20;;;1.20;99.90;;;;;;12491118;28;20422;-36
2022/03/03 21:47:29;;;;;;;25.15;12.40;;;1.10;99.90;;;;;;12488362;28;20505;-36
2022/03/03 21:53:34;;;;;;;23.02;12.43;;;1.10;99.90;;;;;;12490760;28;20046;-40
2022/03/03 21:59:38;;;;;;;26.77;12.38;;;1.00;99.90;;;;;;12487102;28;20045;-35
2022/03/03 22:05:40;;;;;;;26.85;13.10;;;1.00;99.90;;;;;;12474590;28;20656;-41
2022/03/03 22:11:43;;;;;;;26.48;13.35;;;1.00;99.90;;;;;;12489459;28;20045;-39
2022/03/03 22:17:47;;;;;;;28.75;14.63;;;1.00;99.90;;;;;;12492502;28;20106;-35
2022/03/03 22:23:50;;;;;;;32.83;15.55;;;0.70;99.90;;;;;;12491528;28;20128;-36
2022/03/03 22:29:53;;;;;;;29.30;14.38;;;0.70;99.90;;;;;;12492301;28;20068;-38
2022/03/03 22:35:55;;;;;;;29.25;14.05;;;0.60;99.90;;;;;;12485636;28;20049;-35
2022/03/03 22:41:57;;;;;;;27.35;14.10;;;0.40;99.90;;;;;;12489661;28;20133;-36
2022/03/03 22:48:01;;;;;;;32.20;15.45;;;0.30;99.90;;;;;;12486602;28;20053;-40
2022/03/03 22:54:04;;;;;;;32.13;14.68;;;0.30;99.90;;;;;;12488182;28;20048;-39
2022/03/03 23:00:10;;;;;;;30.25;14.65;;;0.30;99.90;;;;;;12486064;28;20547;-39
2022/03/03 23:06:13;;;;;;;34.22;15.27;;;0.30;99.90;;;;;;12495544;28;20049;-37
2022/03/03 23:12:16;;;;;;;28.20;15.02;;;0.30;99.90;;;;;;12476961;28;20056;-35
2022/03/03 23:18:19;;;;;;;28.77;14.67;;;0.30;99.90;;;;;;12493243;28;20058;-39
2022/03/03 23:24:22;;;;;;;32.47;15.23;;;0.20;99.90;;;;;;12494315;28;20094;-36
2022/03/03 23:30:26;;;;;;;27.90;14.25;;;0.20;99.90;;;;;;12496300;28;20152;-40
2022/03/03 23:36:30;;;;;;;27.92;13.95;;;0.00;99.90;;;;;;12495234;28;20556;-39
2022/03/03 23:42:34;;;;;;;28.60;14.77;;;0.00;99.90;;;;;;12499620;28;20497;-35
2022/03/03 23:48:37;;;;;;;28.42;13.20;;;0.20;99.90;;;;;;12494507;28;20365;-35
2022/03/03 23:54:41;;;;;;;30.40;14.45;;;0.00;99.90;;;;;;12495382;28;20049;-39
